Tucumcari ASC

2021-01-22 05:35:00

  • imperial
Date Time Air Temperature Relative Humidity Dewpoint Windchill Heat Index Wind Speed Wind Dir. Rain Solar Radiation Soil Temperature
2m 2m 3m 3m 10cm
US/Mountain F % F F F MPH deg in MJ/m^2 F
max avg avg
2021-01-21 05:45:00 42.4 53.2 26.6 35.7 42.4 12.4 12.4 10.1 257.9 256.0 0.00 0.0000000 41.3
2021-01-21 05:50:00 42.3 53.0 26.3 35.2 42.3 13.7 14.2 10.8 248.6 255.6 0.00 0.0000000 41.3
2021-01-21 05:55:00 42.4 53.0 26.5 37.1 42.4 8.8 13.3 10.7 249.8 251.6 0.00 0.0000000 41.3
2021-01-21 06:00:00 42.4 52.8 26.4 35.8 42.4 12.2 15.8 11.7 253.5 257.5 0.00 0.0000000 41.3
2021-01-21 06:05:00 42.4 52.6 26.3 35.8 42.4 12.2 15.5 12.0 266.9 260.1 0.00 0.0000000 41.3
2021-01-21 06:10:00 42.8 51.9 26.3 36.8 42.8 10.8 15.5 11.4 267.0 258.6 0.00 0.0000000 41.3
2021-01-21 06:15:00 42.8 51.9 26.3 36.2 42.8 12.2 14.0 11.6 258.5 255.7 0.00 0.0000000 41.3
2021-01-21 06:20:00 42.9 52.0 26.4 36.8 42.9 10.8 17.1 13.1 249.0 253.6 0.00 0.0000000 41.3
2021-01-21 06:25:00 42.5 52.4 26.3 34.4 42.5 17.4 18.7 14.9 264.6 257.6 0.00 0.0000000 41.3
2021-01-21 06:30:00 42.2 53.2 26.4 35.1 42.2 13.5 17.8 14.5 255.7 259.0 0.00 0.0000000 41.3
2021-01-21 06:35:00 41.9 53.6 26.3 34.3 41.9 14.9 16.0 14.0 259.3 264.2 0.00 0.0000000 41.3
2021-01-21 06:40:00 41.6 54.3 26.3 35.2 41.6 10.8 16.0 12.4 260.1 263.3 0.00 0.0000000 41.3
2021-01-21 06:45:00 41.6 54.1 26.2 35.2 41.6 10.8 15.8 12.3 268.1 268.6 0.00 0.0000000 41.3
2021-01-21 06:50:00 41.2 55.0 26.2 34.2 41.2 12.2 12.8 10.8 258.2 268.7 0.00 0.0000000 41.3
2021-01-21 06:55:00 40.9 55.6 26.3 34.9 40.9 9.7 13.9 10.0 273.1 262.8 0.00 0.0000000 41.2
2021-01-21 07:00:00 40.9 55.7 26.3 35.0 40.9 9.4 12.2 10.2 259.6 268.9 0.00 0.0000000 41.2
2021-01-21 07:05:00 40.6 56.0 26.2 34.8 40.6 9.0 12.4 10.6 276.5 262.7 0.00 0.0000331 41.2
2021-01-21 07:10:00 40.4 56.7 26.2 33.7 40.4 11.0 11.5 9.7 274.8 264.7 0.00 0.0005338 41.2
2021-01-21 07:15:00 40.5 56.8 26.3 34.2 40.5 9.9 12.4 10.4 249.0 259.3 0.00 0.0010918 41.1
2021-01-21 07:20:00 40.5 56.5 26.2 34.0 40.5 10.5 12.4 10.6 264.6 263.3 0.00 0.0016443 41.1
2021-01-21 07:25:00 40.3 56.8 26.2 33.9 40.3 10.3 12.2 10.7 268.3 265.7 0.00 0.0021486 41.1
2021-01-21 07:30:00 40.3 56.9 26.2 33.3 40.3 11.7 12.8 10.9 271.3 270.3 0.00 0.0027791 41.0
2021-01-21 07:35:00 40.2 57.0 26.2 33.8 40.2 10.1 13.1 10.4 265.2 269.2 0.00 0.0033670 41.0
2021-01-21 07:40:00 39.8 57.7 26.1 33.2 39.8 10.5 11.9 9.5 269.6 268.9 0.00 0.0039923 41.0
2021-01-21 07:45:00 39.7 58.2 26.2 34.7 39.7 7.1 10.8 8.4 264.9 269.0 0.00 0.0052950 41.0
2021-01-21 07:50:00 39.3 58.9 26.2 34.7 39.3 6.3 10.1 7.7 263.0 265.8 0.00 0.0067250 40.9
2021-01-21 07:55:00 39.6 58.6 26.3 33.1 39.6 9.9 11.2 8.1 271.6 269.7 0.00 0.0145407 40.9
2021-01-21 08:00:00 40.4 57.4 26.5 34.8 40.4 8.5 10.6 8.6 271.8 270.0 0.00 0.0235386 40.9
2021-01-21 08:05:00 41.2 55.8 26.6 34.7 41.2 11.0 11.9 9.6 248.5 262.9 0.00 0.0297983 40.8
2021-01-21 08:10:00 41.4 55.6 26.7 37.7 41.4 5.5 11.5 8.7 239.5 250.0 0.00 0.0315284 40.8
2021-01-21 08:15:00 41.6 55.5 26.8 37.0 41.6 7.1 9.4 6.5 285.8 251.0 0.00 0.0324982 40.8
2021-01-21 08:20:00 41.9 55.0 26.9 36.3 41.9 9.0 9.7 7.9 244.6 254.1 0.00 0.0348163 40.8
2021-01-21 08:25:00 42.2 54.6 27.0 37.7 42.2 7.1 9.0 7.9 258.3 251.3 0.00 0.0420306 40.9
2021-01-21 08:30:00 42.6 53.7 27.0 36.4 42.6 11.2 13.0 8.7 266.7 257.0 0.00 0.0467715 40.9
2021-01-21 08:35:00 43.0 53.3 27.2 36.7 43.0 11.7 13.3 11.4 251.9 260.9 0.00 0.0523446 40.9
2021-01-21 08:40:00 43.9 51.5 27.2 37.9 43.9 11.5 13.3 10.9 260.4 262.7 0.00 0.0634540 41.0
2021-01-21 08:45:00 44.6 50.8 27.5 39.8 44.6 8.8 12.8 10.3 271.8 264.0 0.00 0.0684204 41.1
2021-01-21 08:50:00 45.5 49.0 27.4 40.1 45.5 10.8 11.9 9.5 273.6 267.4 0.00 0.0689498 41.2
2021-01-21 08:55:00 46.3 47.7 27.5 41.3 46.3 10.3 12.2 9.7 256.9 262.7 0.00 0.0754290 41.3
2021-01-21 09:00:00 46.9 46.6 27.4 42.7 46.9 8.5 11.2 9.2 274.2 269.2 0.00 0.0791604 41.4
2021-01-21 09:05:00 47.3 45.2 27.2 42.2 47.3 11.3 11.3 8.6 267.4 271.2 0.00 0.0646427 41.5
2021-01-21 09:10:00 47.7 45.0 27.4 44.5 47.7 6.7 11.3 8.5 283.8 273.3 0.00 0.0589876 41.6
2021-01-21 09:15:00 48.1 44.2 27.3 44.4 48.1 8.0 9.9 8.1 249.4 258.6 0.00 0.0637478 41.8
2021-01-21 09:20:00 48.2 44.1 27.4 44.9 48.2 7.1 9.7 7.2 260.3 258.2 0.00 0.0739464 41.9
2021-01-21 09:25:00 48.6 43.6 27.4 45.3 48.6 7.4 9.2 7.2 256.8 266.5 0.00 0.0731215 42.0
2021-01-21 09:30:00 48.8 43.1 27.3 46.2 48.8 6.0 6.9 5.7 278.1 279.0 0.00 0.0721744 42.2
2021-01-21 09:35:00 48.9 42.9 27.3 45.6 48.9 7.6 7.6 6.3 266.5 273.2 0.00 0.0770901 42.3
2021-01-21 09:40:00 49.1 43.0 27.6 46.5 49.1 6.2 8.1 6.7 291.0 283.6 0.00 0.0767424 42.5
2021-01-21 09:45:00 49.5 42.2 27.5 47.2 49.5 5.8 8.3 6.7 306.7 297.0 0.00 0.0918714 42.6
2021-01-21 09:50:00 49.9 42.5 28.0 47.6 49.9 6.0 7.2 6.0 301.0 305.4 0.00 0.1066040 42.7
2021-01-21 09:55:00 50.0 40.9 27.1 50.0 50.0 5.3 6.5 5.5 298.9 305.5 0.00 0.0942706 42.9
2021-01-21 10:00:00 49.9 41.7 27.6 48.1 49.9 5.1 6.0 4.9 314.0 294.3 0.00 0.0883133 43.1
2021-01-21 10:05:00 50.4 40.6 27.3 50.4 50.4 6.2 6.5 5.7 326.7 310.2 0.00 0.1063956 43.2
2021-01-21 10:10:00 50.4 41.3 27.7 50.4 50.4 4.6 6.7 5.1 302.8 328.7 0.00 0.0940942 43.5
2021-01-21 10:15:00 50.5 39.6 26.9 50.5 50.5 3.5 5.1 4.1 333.1 329.2 0.00 0.1441946 43.7
2021-01-21 10:20:00 51.8 38.1 27.1 51.8 51.8 4.9 7.2 4.3 25.6 351.0 0.00 0.1597147 43.9
2021-01-21 10:25:00 51.9 36.7 26.3 51.9 51.9 4.9 7.2 5.2 320.4 324.3 0.00 0.1598989 44.1
2021-01-21 10:30:00 51.9 36.4 26.1 51.9 51.9 4.9 7.6 5.6 319.4 303.9 0.00 0.1622925 44.4
2021-01-21 10:35:00 53.5 35.0 26.5 53.5 53.5 6.2 7.6 5.4 282.0 306.1 0.00 0.1646874 44.7
2021-01-21 10:40:00 53.5 34.7 26.3 53.5 53.5 5.1 9.4 6.0 317.8 313.7 0.00 0.1592573 45.0
2021-01-21 10:45:00 53.4 34.3 25.9 53.4 53.4 4.7 9.9 7.1 272.7 290.7 0.00 0.1605019 45.4
2021-01-21 10:50:00 54.0 33.1 25.6 54.0 54.0 5.5 7.6 6.1 303.1 293.4 0.00 0.1690434 45.7
2021-01-21 10:55:00 54.6 32.8 25.9 54.6 54.6 4.6 7.1 4.9 342.4 320.3 0.00 0.1708407 46.1
2021-01-21 11:00:00 54.9 31.4 25.2 54.9 54.9 3.1 6.9 4.6 279.3 304.6 0.00 0.1726913 46.4
2021-01-21 11:05:00 55.4 31.1 25.3 55.4 55.4 3.1 6.5 4.2 0.4 336.2 0.00 0.1746016 46.8
2021-01-21 11:10:00 56.2 29.7 24.9 56.2 56.2 5.3 5.3 3.5 277.9 318.4 0.00 0.1751481 47.1
2021-01-21 11:15:00 56.8 27.7 23.8 56.8 56.8 6.5 6.5 4.7 287.2 282.4 0.00 0.1783123 47.5
2021-01-21 11:20:00 56.5 26.6 22.6 56.5 56.5 6.9 8.1 6.3 284.2 292.3 0.00 0.1429412 47.9
2021-01-21 11:25:00 56.0 28.4 23.6 56.0 56.0 4.9 9.0 6.7 295.0 300.4 0.00 0.0834788 48.2
2021-01-21 11:30:00 55.5 30.1 24.6 55.5 55.5 6.5 7.4 5.9 289.2 290.9 0.00 0.0885880 48.6
2021-01-21 11:35:00 55.3 30.0 24.4 55.3 55.3 4.9 7.2 6.0 323.9 303.7 0.00 0.0923353 48.8
2021-01-21 11:40:00 56.3 28.5 24.0 56.3 56.3 4.9 5.8 3.8 306.0 302.4 0.00 0.1592771 49.1
2021-01-21 11:45:00 57.1 28.1 24.4 57.1 57.1 5.6 8.3 6.2 336.8 316.0 0.00 0.1894428 49.3
2021-01-21 11:50:00 57.4 27.8 24.4 57.4 57.4 6.9 8.0 6.0 315.0 315.9 0.00 0.1940452 49.4
2021-01-21 11:55:00 57.4 27.5 24.2 57.4 57.4 3.3 7.8 5.1 323.9 314.1 0.00 0.1899666 49.6
2021-01-21 12:00:00 58.5 26.9 24.5 58.5 58.5 4.9 8.7 4.8 331.8 298.9 0.00 0.1736584 49.9
2021-01-21 12:05:00 58.5 27.7 25.2 58.5 58.5 6.2 7.2 5.6 317.4 325.5 0.00 0.1667280 50.1
2021-01-21 12:10:00 58.5 27.8 25.4 58.5 58.5 1.9 5.8 3.5 305.9 296.8 0.00 0.1612442 50.4
2021-01-21 12:15:00 59.0 26.5 24.6 59.0 59.0 3.1 7.2 3.9 250.9 289.1 0.00 0.1778782 50.7
2021-01-21 12:20:00 59.6 26.1 24.8 59.6 59.6 3.7 8.3 3.7 278.0 315.0 0.00 0.1923046 51.0
2021-01-21 12:25:00 60.2 26.1 25.3 60.2 60.2 6.7 8.0 4.4 22.2 294.1 0.00 0.1895079 51.3
2021-01-21 12:30:00 60.2 25.6 24.9 60.2 60.2 1.2 7.6 3.9 199.2 32.2 0.00 0.1858296 51.5
2021-01-21 12:35:00 59.6 26.1 24.8 59.6 59.6 1.9 5.8 2.5 310.1 230.0 0.00 0.0702218 51.8
2021-01-21 12:40:00 59.1 26.8 24.9 59.1 59.1 4.6 5.3 2.8 60.2 40.4 0.00 0.0714627 52.1
2021-01-21 12:45:00 58.8 26.8 24.7 58.8 58.8 2.6 4.9 3.4 46.0 53.9 0.00 0.1152832 52.3
2021-01-21 12:50:00 59.6 26.7 25.3 59.6 59.6 5.3 5.3 3.4 78.1 45.7 0.00 0.1493299 52.5
2021-01-21 12:55:00 59.5 26.2 24.8 59.5 59.5 4.0 7.1 4.3 47.6 58.7 0.00 0.1033637 52.7
2021-01-21 13:00:00 59.3 26.3 24.6 59.3 59.3 3.7 5.3 4.1 98.7 70.4 0.00 0.0784199 52.8
2021-01-21 13:05:00 59.3 26.1 24.5 59.3 59.3 3.7 5.3 3.8 88.9 70.7 0.00 0.0731758 52.9
2021-01-21 13:10:00 59.5 25.8 24.4 59.5 59.5 3.1 6.0 3.9 71.8 69.7 0.00 0.0787144 53.0
2021-01-21 13:15:00 59.9 25.5 24.5 59.9 59.9 2.8 5.1 3.7 106.4 57.9 0.00 0.0793507 53.1
2021-01-21 13:20:00 60.5 24.4 24.0 60.5 60.5 2.4 4.9 3.5 58.0 92.0 0.00 0.0937481 53.1
2021-01-21 13:25:00 61.7 23.6 24.1 61.7 61.7 2.4 5.8 3.5 63.3 68.8 0.00 0.1769785 53.1
2021-01-21 13:30:00 62.1 22.9 23.7 62.1 62.1 5.6 8.3 5.1 64.5 46.8 0.00 0.2043359 53.1
2021-01-21 13:35:00 62.9 22.6 24.0 62.9 62.9 1.7 8.3 4.5 84.4 58.8 0.00 0.1967792 53.2
2021-01-21 13:40:00 63.4 21.6 23.4 63.4 63.4 3.8 7.8 4.2 82.1 74.6 0.00 0.1954720 53.3
2021-01-21 13:45:00 63.1 21.7 23.3 63.1 63.1 3.5 5.8 3.2 177.0 84.6 0.00 0.1329199 53.4
2021-01-21 13:50:00 61.7 22.7 23.2 61.7 61.7 2.4 4.9 3.3 121.2 162.0 0.00 0.0591679 53.6
2021-01-21 13:55:00 63.3 22.6 24.4 63.3 63.3 4.9 7.6 3.1 29.6 103.0 0.00 0.1631578 53.8
2021-01-21 14:00:00 63.1 22.9 24.5 63.1 63.1 5.3 8.5 6.0 75.7 57.2 0.00 0.1481315 53.9
2021-01-21 14:05:00 62.4 23.2 24.3 62.4 62.4 6.7 9.4 7.2 83.8 53.8 0.00 0.1723479 54.1
2021-01-21 14:10:00 62.5 23.3 24.4 62.5 62.5 1.9 7.6 4.3 86.2 46.5 0.00 0.1373150 54.2
2021-01-21 14:15:00 62.1 23.8 24.7 62.1 62.1 10.1 10.6 5.7 69.9 49.0 0.00 0.0869992 54.3
2021-01-21 14:20:00 60.9 24.8 24.6 60.9 60.9 6.2 12.2 8.3 56.7 57.8 0.00 0.0725364 54.4
2021-01-21 14:25:00 60.6 25.0 24.6 60.6 60.6 6.9 8.1 6.1 65.9 53.7 0.00 0.0725373 54.6
2021-01-21 14:30:00 61.0 24.7 24.5 61.0 61.0 6.0 8.7 5.1 48.7 63.0 0.00 0.0765354 54.6
2021-01-21 14:35:00 61.2 24.7 24.8 61.2 61.2 7.2 9.0 6.4 52.0 59.7 0.00 0.0950047 54.7
2021-01-21 14:40:00 60.6 25.2 24.7 60.6 60.6 5.8 9.2 7.2 39.0 46.3 0.00 0.0670183 54.7
2021-01-21 14:45:00 60.4 25.1 24.5 60.4 60.4 4.2 8.1 6.3 100.4 68.8 0.00 0.0547275 54.7
2021-01-21 14:50:00 60.4 25.2 24.5 60.4 60.4 6.9 7.8 5.4 73.7 68.2 0.00 0.0556396 54.7
2021-01-21 14:55:00 60.2 25.2 24.4 60.2 60.2 8.5 8.5 6.3 66.5 76.2 0.00 0.0543588 54.7
2021-01-21 15:00:00 60.5 25.0 24.5 60.5 60.5 6.3 7.8 6.4 87.6 72.1 0.00 0.0695130 54.7
2021-01-21 15:05:00 60.5 25.0 24.5 60.5 60.5 6.9 7.6 6.0 69.2 74.8 0.00 0.0605773 54.6
2021-01-21 15:10:00 61.5 24.3 24.7 61.5 61.5 6.5 8.5 6.1 62.4 76.3 0.00 0.1160438 54.6
2021-01-21 15:15:00 61.7 24.4 24.9 61.7 61.7 5.3 8.5 6.5 52.1 66.5 0.00 0.0956871 54.5
2021-01-21 15:20:00 61.1 24.6 24.6 61.1 61.1 7.1 9.9 6.0 61.5 75.1 0.00 0.0700614 54.5
2021-01-21 15:25:00 60.5 25.1 24.5 60.5 60.5 8.0 9.6 7.5 85.3 60.1 0.00 0.0681579 54.4
2021-01-21 15:30:00 60.7 24.8 24.5 60.7 60.7 7.1 9.9 7.3 67.0 68.5 0.00 0.0656353 54.4
2021-01-21 15:35:00 59.7 25.8 24.5 59.7 59.7 4.0 8.0 5.5 81.4 79.7 0.00 0.0239343 54.3
2021-01-21 15:40:00 59.6 25.8 24.5 59.6 59.6 3.0 7.1 4.5 80.3 92.1 0.00 0.0444369 54.3
2021-01-21 15:45:00 59.6 25.8 24.5 59.6 59.6 4.7 5.8 3.9 93.9 91.2 0.00 0.0295742 54.2
2021-01-21 15:50:00 59.6 25.9 24.6 59.6 59.6 3.8 5.1 4.0 89.1 90.9 0.00 0.0437067 54.1
2021-01-21 15:55:00 60.0 25.4 24.4 60.0 60.0 6.0 6.7 4.9 103.7 86.4 0.00 0.0543422 54.0
2021-01-21 16:00:00 59.7 25.9 24.6 59.7 59.7 3.1 7.6 4.9 87.4 83.3 0.00 0.0394149 53.9
2021-01-21 16:05:00 59.8 25.6 24.4 59.8 59.8 7.8 8.1 5.5 110.0 97.8 0.00 0.0447338 53.8
2021-01-21 16:10:00 59.6 25.7 24.4 59.6 59.6 5.1 7.4 5.7 94.7 89.6 0.00 0.0430344 53.7
2021-01-21 16:15:00 58.7 26.5 24.3 58.7 58.7 3.0 6.2 4.7 83.6 77.4 0.00 0.0161436 53.6
2021-01-21 16:20:00 57.9 27.6 24.6 57.9 57.9 1.3 4.0 2.8 64.8 71.3 0.00 0.0103315 53.5
2021-01-21 16:25:00 57.4 27.5 24.2 57.4 57.4 2.2 2.2 1.4 136.1 132.3 0.00 0.0097815 53.4
2021-01-21 16:30:00 56.8 28.0 24.0 56.8 56.8 3.0 3.0 2.5 150.6 131.4 0.00 0.0089739 53.3
2021-01-21 16:35:00 56.7 28.7 24.5 56.7 56.7 3.8 4.0 3.4 125.5 150.0 0.00 0.0079201 53.2
2021-01-21 16:40:00 56.3 28.7 24.2 56.3 56.3 1.5 4.2 3.1 67.4 96.3 0.00 0.0056218 53.0
2021-01-21 16:45:00 56.2 29.6 24.8 56.2 56.2 1.9 1.9 1.3 312.1 12.9 0.00 0.0045420 52.9
2021-01-21 16:50:00 55.9 29.7 24.7 55.9 55.9 0.0 2.1 1.0 0.2 339.2 0.00 0.0037267 52.8
2021-01-21 16:55:00 55.9 29.4 24.4 55.9 55.9 2.1 2.1 0.4 85.1 84.2 0.00 0.0026222 52.7
2021-01-21 17:00:00 55.9 29.8 24.7 55.9 55.9 1.9 3.8 3.1 107.8 80.8 0.00 0.0076353 52.6
2021-01-21 17:05:00 55.4 30.4 24.7 55.4 55.4 0.0 3.1 1.4 247.7 174.8 0.00 0.0090848 52.5
2021-01-21 17:10:00 55.6 29.7 24.4 55.6 55.6 3.3 3.3 1.5 134.9 173.8 0.00 0.0034339 52.4
2021-01-21 17:15:00 55.0 30.1 24.2 55.0 55.0 1.2 3.8 2.3 335.9 97.1 0.00 0.0012248 52.3
2021-01-21 17:20:00 54.4 31.7 24.9 54.4 54.4 3.3 3.3 1.1 285.9 289.6 0.00 0.0003596 52.2
2021-01-21 17:25:00 54.9 30.3 24.3 54.9 54.9 3.1 4.2 2.9 168.7 231.6 0.00 0.0000000 52.1
2021-01-21 17:30:00 54.6 30.9 24.4 54.6 54.6 5.3 6.0 4.1 114.4 130.9 0.00 0.0000000 51.9
2021-01-21 17:35:00 54.6 30.7 24.3 54.6 54.6 2.1 3.8 3.2 76.6 107.7 0.00 0.0000000 51.9
2021-01-21 17:40:00 53.9 32.3 24.9 53.9 53.9 3.0 4.2 2.7 266.0 184.0 0.00 0.0000000 51.7
2021-01-21 17:45:00 54.3 30.9 24.2 54.3 54.3 0.0 2.8 0.8 147.0 148.5 0.00 0.0000000 51.6
2021-01-21 17:50:00 53.7 33.0 25.2 53.7 53.7 3.1 3.5 1.4 325.0 334.0 0.00 0.0000000 51.5
2021-01-21 17:55:00 53.4 32.5 24.6 53.4 53.4 2.6 4.7 3.2 268.8 316.9 0.00 0.0000000 51.4
2021-01-21 18:00:00 53.9 31.8 24.6 53.9 53.9 3.1 3.5 2.9 262.6 271.7 0.00 0.0000000 51.3
2021-01-21 18:05:00 53.4 33.0 25.0 53.4 53.4 6.9 6.9 5.0 256.5 264.5 0.00 0.0000000 51.2
2021-01-21 18:10:00 54.0 32.9 25.4 54.0 54.0 6.2 10.1 5.8 244.7 257.9 0.00 0.0000000 51.1
2021-01-21 18:15:00 53.9 32.8 25.2 53.9 53.9 6.5 7.1 6.2 252.3 257.2 0.00 0.0000000 51.0
2021-01-21 18:20:00 55.1 30.9 25.0 55.1 55.1 9.4 11.7 9.3 249.3 263.3 0.00 0.0000000 51.0
2021-01-21 18:25:00 55.1 31.0 25.0 55.1 55.1 7.4 10.3 8.3 264.0 265.5 0.00 0.0000000 50.8
2021-01-21 18:30:00 55.6 30.5 25.0 55.6 55.6 10.1 12.1 9.6 255.5 267.4 0.00 0.0000000 50.8
2021-01-21 18:35:00 55.4 30.8 25.1 55.4 55.4 7.8 9.7 8.7 271.9 262.9 0.00 0.0000000 50.7
2021-01-21 18:40:00 55.4 30.7 25.0 55.4 55.4 14.6 15.1 9.3 261.5 270.0 0.00 0.0000000 50.6
2021-01-21 18:45:00 55.0 31.0 24.9 55.0 55.0 8.8 15.3 9.6 240.1 253.2 0.00 0.0000000 50.5
2021-01-21 18:50:00 55.3 30.5 24.8 55.3 55.3 9.2 14.6 10.5 241.6 252.6 0.00 0.0000000 50.5
2021-01-21 18:55:00 55.0 31.0 24.9 55.0 55.0 9.0 12.4 9.8 250.7 251.2 0.00 0.0000000 50.4
2021-01-21 19:00:00 54.2 32.0 24.9 54.2 54.2 9.7 10.6 8.4 262.0 258.6 0.00 0.0000000 50.4
2021-01-21 19:05:00 53.4 33.0 25.0 53.4 53.4 7.2 10.8 7.9 260.1 259.8 0.00 0.0000000 50.3
2021-01-21 19:10:00 52.7 33.9 25.0 52.7 52.7 6.3 9.4 6.9 254.7 252.5 0.00 0.0000000 50.2
2021-01-21 19:15:00 51.9 34.8 25.0 51.9 51.9 4.7 6.7 5.3 266.6 250.1 0.00 0.0000000 50.1
2021-01-21 19:20:00 51.9 34.6 24.8 51.9 51.9 6.9 10.5 6.9 262.8 253.2 0.00 0.0000000 50.1
2021-01-21 19:25:00 52.2 34.3 24.9 52.2 52.2 5.8 10.3 7.6 242.7 250.3 0.00 0.0000000 50.0
2021-01-21 19:30:00 51.5 35.2 24.9 51.5 51.5 7.1 8.5 7.1 263.0 259.1 0.00 0.0000000 49.9
2021-01-21 19:35:00 51.3 35.4 24.8 51.3 51.3 6.3 9.9 7.3 264.8 259.6 0.00 0.0000000 49.8
2021-01-21 19:40:00 51.2 35.3 24.7 51.2 51.2 7.8 8.8 6.8 233.9 242.2 0.00 0.0000000 49.7
2021-01-21 19:45:00 50.6 36.4 24.9 50.6 50.6 8.5 8.5 7.1 256.6 246.2 0.00 0.0000000 49.7
2021-01-21 19:50:00 50.3 37.0 25.0 50.3 50.3 6.5 9.4 7.7 258.6 253.8 0.00 0.0000000 49.6
2021-01-21 19:55:00 50.4 37.2 25.2 50.4 50.4 10.6 11.3 8.6 254.3 256.6 0.00 0.0000000 49.5
2021-01-21 20:00:00 50.0 37.8 25.2 50.0 50.0 7.8 10.3 8.2 287.4 261.7 0.00 0.0000000 49.4
2021-01-21 20:05:00 49.0 39.4 25.3 45.2 49.0 8.8 9.6 7.8 312.1 275.2 0.00 0.0000000 49.3
2021-01-21 20:10:00 49.1 38.9 25.2 44.4 49.1 11.7 12.1 9.2 307.7 302.2 0.00 0.0000000 49.2
2021-01-21 20:15:00 48.3 40.4 25.3 45.4 48.3 6.3 11.0 7.5 308.6 296.8 0.00 0.0000000 49.2
2021-01-21 20:20:00 46.8 42.6 25.3 44.3 46.8 5.3 6.5 5.7 310.5 308.7 0.00 0.0000000 49.1
2021-01-21 20:25:00 46.1 43.7 25.2 43.6 46.1 4.9 5.8 5.1 302.5 312.6 0.00 0.0000000 49.0
2021-01-21 20:30:00 44.0 47.5 25.3 39.3 44.0 8.3 8.5 7.2 304.2 293.0 0.00 0.0000000 48.9
2021-01-21 20:35:00 44.2 47.3 25.4 41.6 44.2 4.7 7.6 6.2 330.1 319.0 0.00 0.0000000 48.8
2021-01-21 20:40:00 43.4 48.5 25.2 40.9 43.4 4.4 5.3 4.8 323.2 322.2 0.00 0.0000000 48.7
2021-01-21 20:45:00 42.6 50.3 25.4 38.9 42.6 6.0 6.0 4.8 317.1 318.6 0.00 0.0000000 48.6
2021-01-21 20:50:00 43.1 47.2 24.3 39.0 43.1 6.7 6.7 4.9 343.2 334.5 0.00 0.0000000 48.5
2021-01-21 20:55:00 44.1 46.1 24.7 40.3 44.1 6.5 7.4 5.7 312.4 328.2 0.00 0.0000000 48.4
2021-01-21 21:00:00 41.7 51.6 25.2 35.7 41.7 10.3 11.2 7.6 298.4 305.2 0.00 0.0000000 48.3
2021-01-21 21:05:00 42.8 47.9 24.4 38.2 42.8 7.4 11.7 9.6 328.6 308.4 0.00 0.0000000 48.2
2021-01-21 21:10:00 42.2 48.8 24.3 35.9 42.2 11.2 11.2 7.7 319.9 317.4 0.00 0.0000000 48.1
2021-01-21 21:15:00 42.5 47.6 23.9 37.1 42.5 9.0 11.0 9.1 322.8 320.7 0.00 0.0000000 48.0
2021-01-21 21:20:00 42.4 47.3 23.7 38.5 42.4 6.2 9.0 7.6 329.6 330.4 0.00 0.0000000 47.9
2021-01-21 21:25:00 42.4 46.9 23.5 38.0 42.4 7.1 9.6 7.7 330.8 333.7 0.00 0.0000000 47.8
2021-01-21 21:30:00 42.0 47.0 23.3 37.2 42.0 7.8 9.2 7.3 320.4 333.2 0.00 0.0000000 47.8
2021-01-21 21:35:00 41.6 47.6 23.1 36.1 41.6 8.7 9.6 8.2 318.0 324.2 0.00 0.0000000 47.6
2021-01-21 21:40:00 42.4 45.9 23.1 37.1 42.4 8.8 9.6 8.6 322.4 328.6 0.00 0.0000000 47.6
2021-01-21 21:45:00 42.9 45.1 23.1 37.8 42.9 8.7 10.3 8.8 319.2 329.1 0.00 0.0000000 47.5
2021-01-21 21:50:00 42.9 45.0 23.0 38.1 42.9 8.0 9.4 8.1 338.4 326.4 0.00 0.0000000 47.4
2021-01-21 21:55:00 43.2 44.3 22.9 38.3 43.2 8.3 9.0 7.4 329.3 335.3 0.00 0.0000000 47.3
2021-01-21 22:00:00 42.8 45.2 23.0 38.8 42.8 6.3 10.1 7.4 329.4 327.2 0.00 0.0000000 47.2
2021-01-21 22:05:00 42.1 46.2 22.9 39.0 42.1 4.9 9.0 6.8 336.3 332.0 0.00 0.0000000 47.1
2021-01-21 22:10:00 41.9 46.5 22.9 39.1 41.9 4.6 6.7 4.9 0.5 354.3 0.00 0.0000000 47.0
2021-01-21 22:15:00 41.9 46.4 22.8 39.1 41.9 4.6 5.6 4.6 325.6 345.5 0.00 0.0000000 47.0
2021-01-21 22:20:00 41.2 47.9 22.9 37.9 41.2 4.9 6.9 5.7 327.2 319.8 0.00 0.0000000 46.9
2021-01-21 22:25:00 40.9 48.6 23.0 36.3 40.9 6.9 7.6 6.2 325.2 320.1 0.00 0.0000000 46.8
2021-01-21 22:30:00 41.2 48.0 23.0 37.1 41.2 6.0 7.2 6.3 332.0 324.1 0.00 0.0000000 46.7
2021-01-21 22:35:00 41.2 48.2 23.1 38.8 41.2 3.8 7.2 5.9 347.9 331.7 0.00 0.0000000 46.6
2021-01-21 22:40:00 41.2 48.4 23.2 37.6 41.2 5.3 5.5 4.4 330.7 346.8 0.00 0.0000000 46.5
2021-01-21 22:45:00 40.3 49.8 23.1 37.3 40.3 4.4 5.6 4.9 333.1 331.6 0.00 0.0000000 46.4
2021-01-21 22:50:00 38.4 53.3 22.9 34.9 38.4 4.6 5.3 4.1 316.0 321.1 0.00 0.0000000 46.4
2021-01-21 22:55:00 37.6 55.4 23.1 33.3 37.6 5.5 5.6 5.0 325.9 317.7 0.00 0.0000000 46.3
2021-01-21 23:00:00 37.5 55.7 23.1 34.4 37.5 4.0 5.3 4.3 322.5 320.8 0.00 0.0000000 46.2
2021-01-21 23:05:00 37.6 55.6 23.1 37.6 37.6 2.8 4.0 3.2 335.1 329.6 0.00 0.0000000 46.1
2021-01-21 23:10:00 38.6 54.5 23.6 35.3 38.6 4.4 6.2 3.5 348.8 342.8 0.00 0.0000000 46.0
2021-01-21 23:15:00 39.6 53.0 23.9 34.3 39.6 7.6 8.1 6.0 2.4 356.0 0.00 0.0000000 45.9
2021-01-21 23:20:00 40.1 52.6 24.2 35.1 40.1 7.2 9.7 7.1 3.5 359.0 0.00 0.0000000 45.8
2021-01-21 23:25:00 40.9 51.2 24.2 37.2 40.9 5.5 8.8 6.6 14.6 4.4 0.00 0.0000000 45.7
2021-01-21 23:30:00 41.2 50.6 24.2 36.0 41.2 8.1 8.3 6.0 1.5 7.0 0.00 0.0000000 45.7
2021-01-21 23:35:00 40.7 51.5 24.2 35.4 40.7 8.1 9.0 6.3 0.0 0.8 0.00 0.0000000 45.6
2021-01-21 23:40:00 40.2 52.9 24.4 34.8 40.2 8.1 9.4 7.2 11.7 7.3 0.00 0.0000000 45.5
2021-01-21 23:45:00 40.0 54.2 24.8 35.4 40.0 6.5 10.8 8.6 22.5 10.7 0.00 0.0000000 45.4
2021-01-21 23:50:00 39.7 55.1 24.9 33.6 39.7 9.0 9.6 8.3 19.6 8.5 0.00 0.0000000 45.4
2021-01-21 23:55:00 39.4 55.7 24.8 33.3 39.4 9.0 10.6 8.5 318.6 3.7 0.00 0.0000000 45.3
2021-01-22 00:00:00 38.9 57.1 25.0 33.0 38.9 8.3 10.6 8.3 13.3 11.2 0.00 0.0000000 45.2
2021-01-22 00:05:00 38.7 57.4 25.0 34.0 38.7 6.3 10.5 7.7 25.6 11.5 0.00 0.0000000 45.2
2021-01-22 00:10:00 38.7 57.7 25.1 35.2 38.7 4.7 8.5 6.4 42.6 17.8 0.00 0.0000000 45.1
2021-01-22 00:15:00 38.6 58.2 25.2 32.5 38.6 8.7 9.6 6.5 35.4 14.0 0.00 0.0000000 45.1
2021-01-22 00:20:00 38.6 58.2 25.2 32.6 38.6 8.3 9.6 8.3 11.4 11.2 0.00 0.0000000 45.0
2021-01-22 00:25:00 38.6 58.7 25.4 32.5 38.6 8.7 10.5 8.8 25.5 11.9 0.00 0.0000000 44.9
2021-01-22 00:30:00 38.4 59.1 25.3 33.1 38.4 7.1 8.3 7.1 15.6 10.3 0.00 0.0000000 44.9
2021-01-22 00:35:00 38.1 59.5 25.3 33.0 38.1 6.7 9.4 6.1 347.1 4.8 0.00 0.0000000 44.8
2021-01-22 00:40:00 38.3 59.6 25.4 33.4 38.3 6.3 9.0 6.6 20.6 11.1 0.00 0.0000000 44.7
2021-01-22 00:45:00 38.1 59.9 25.4 33.6 38.1 5.8 6.7 4.9 0.0 15.9 0.00 0.0000000 44.7
2021-01-22 00:50:00 38.5 59.4 25.6 32.3 38.5 8.8 9.0 6.6 2.8 9.8 0.00 0.0000000 44.6
2021-01-22 00:55:00 38.5 59.5 25.6 33.7 38.5 6.3 8.7 6.7 12.3 6.6 0.00 0.0000000 44.6
2021-01-22 01:00:00 38.3 60.1 25.6 34.2 38.3 5.3 9.7 7.1 349.0 5.2 0.00 0.0000000 44.5
2021-01-22 01:05:00 37.9 61.2 25.7 33.7 37.9 5.3 6.9 5.8 345.2 354.4 0.00 0.0000000 44.4
2021-01-22 01:10:00 37.5 62.2 25.8 33.9 37.5 4.6 6.7 5.2 346.8 346.6 0.00 0.0000000 44.4
2021-01-22 01:15:00 37.2 63.0 25.7 32.9 37.2 5.3 7.2 5.7 9.7 345.3 0.00 0.0000000 44.3
2021-01-22 01:20:00 37.0 63.2 25.7 31.5 37.0 7.1 8.0 6.0 10.2 348.1 0.00 0.0000000 44.2
2021-01-22 01:25:00 36.7 64.1 25.6 32.6 36.7 4.9 7.4 5.9 9.8 353.5 0.00 0.0000000 44.2
2021-01-22 01:30:00 35.9 65.1 25.3 31.4 35.9 5.3 7.4 5.2 327.2 340.5 0.00 0.0000000 44.1
2021-01-22 01:35:00 34.9 67.4 25.2 30.7 34.9 4.7 6.5 5.2 326.7 339.9 0.00 0.0000000 44.1
2021-01-22 01:40:00 34.6 68.8 25.4 29.3 34.6 6.0 7.2 5.4 341.4 342.2 0.00 0.0000000 44.0
2021-01-22 01:45:00 34.9 68.3 25.5 29.6 34.9 6.0 7.6 5.8 339.3 347.1 0.00 0.0000000 43.9
2021-01-22 01:50:00 34.4 69.1 25.3 30.5 34.4 4.4 6.3 5.1 8.2 355.0 0.00 0.0000000 43.9
2021-01-22 01:55:00 34.1 69.9 25.3 30.1 34.1 4.4 6.5 5.1 343.1 7.9 0.00 0.0000000 43.8
2021-01-22 02:00:00 34.3 69.5 25.3 29.2 34.3 5.6 6.9 5.5 343.5 10.2 0.00 0.0000000 43.7
2021-01-22 02:05:00 34.6 69.0 25.4 29.4 34.6 5.8 7.2 6.1 1.9 5.7 0.00 0.0000000 43.6
2021-01-22 02:10:00 35.2 67.5 25.5 30.3 35.2 5.6 7.8 6.4 322.1 6.9 0.00 0.0000000 43.6
2021-01-22 02:15:00 35.3 67.3 25.5 30.8 35.3 5.1 7.6 5.6 8.3 0.1 0.00 0.0000000 43.5
2021-01-22 02:20:00 35.4 66.9 25.5 29.7 35.4 6.9 7.4 5.7 10.7 1.7 0.00 0.0000000 43.4
2021-01-22 02:25:00 35.6 66.5 25.5 31.2 35.6 5.1 6.7 5.5 9.9 8.5 0.00 0.0000000 43.4
2021-01-22 02:30:00 35.7 66.0 25.4 30.7 35.7 5.8 8.0 5.8 9.4 5.5 0.00 0.0000000 43.3
2021-01-22 02:35:00 35.6 65.9 25.3 32.1 35.6 4.0 8.0 5.8 348.7 3.2 0.00 0.0000000 43.2
2021-01-22 02:40:00 35.0 67.2 25.2 31.2 35.0 4.2 6.5 4.8 42.4 358.5 0.00 0.0000000 43.2
2021-01-22 02:45:00 33.0 70.8 24.5 29.0 33.0 4.2 5.6 4.6 344.9 335.3 0.00 0.0000000 43.1
2021-01-22 02:50:00 32.4 72.8 24.6 28.5 32.4 4.0 5.6 4.5 345.2 344.5 0.00 0.0000000 43.1
2021-01-22 02:55:00 32.2 73.5 24.7 28.3 32.2 4.0 6.0 4.7 341.0 339.2 0.00 0.0000000 43.0
2021-01-22 03:00:00 32.2 74.0 24.9 28.1 32.2 4.2 6.5 4.8 17.2 339.7 0.00 0.0000000 42.9
2021-01-22 03:05:00 34.0 70.3 25.3 29.0 34.0 5.5 7.8 5.5 19.9 7.5 0.00 0.0000000 42.9
2021-01-22 03:10:00 34.5 67.7 24.9 29.6 34.5 5.5 6.7 5.5 10.0 19.8 0.00 0.0000000 42.8
2021-01-22 03:15:00 34.5 67.6 24.8 30.5 34.5 4.4 6.9 5.2 5.0 14.0 0.00 0.0000000 42.7
2021-01-22 03:20:00 34.4 67.5 24.7 30.0 34.4 4.7 5.8 4.4 53.9 16.7 0.00 0.0000000 42.7
2021-01-22 03:25:00 34.4 67.5 24.7 34.4 34.4 2.2 6.5 3.8 14.6 24.4 0.00 0.0000000 42.6
2021-01-22 03:30:00 34.6 67.2 24.8 34.6 34.6 2.6 5.5 3.2 84.2 52.8 0.00 0.0000000 42.5
2021-01-22 03:35:00 33.1 68.2 23.8 33.1 33.1 2.1 5.8 2.9 218.3 211.5 0.00 0.0000000 42.5
2021-01-22 03:40:00 31.9 72.5 24.1 31.9 31.9 2.1 2.1 1.4 261.3 247.7 0.00 0.0000000 42.4
2021-01-22 03:45:00 31.8 73.7 24.3 31.8 31.8 1.3 2.8 1.3 1.7 287.3 0.00 0.0000000 42.4
2021-01-22 03:50:00 32.2 72.6 24.4 32.2 32.2 1.3 3.3 2.0 229.8 282.9 0.00 0.0000000 42.3
2021-01-22 03:55:00 32.1 72.4 24.2 27.9 32.1 4.2 5.1 2.9 336.1 308.4 0.00 0.0000000 42.2
2021-01-22 04:00:00 30.5 75.2 23.6 27.0 30.5 3.5 5.8 4.4 318.6 319.1 0.00 0.0000000 42.1
2021-01-22 04:05:00 29.9 77.0 23.6 29.9 29.9 2.8 3.8 3.0 327.1 319.1 0.00 0.0000000 42.1
2021-01-22 04:10:00 29.6 78.2 23.6 29.6 29.6 1.5 3.1 2.0 301.4 303.8 0.00 0.0000000 42.0
2021-01-22 04:15:00 29.8 79.3 24.2 26.6 29.8 3.1 4.6 3.1 344.6 325.2 0.00 0.0000000 41.9
2021-01-22 04:20:00 31.4 74.8 24.3 25.4 31.4 6.2 8.0 5.3 337.7 341.2 0.00 0.0000000 41.9
2021-01-22 04:25:00 32.1 71.2 23.8 25.2 32.1 7.6 10.6 6.1 346.2 329.9 0.00 0.0000000 41.8
2021-01-22 04:30:00 31.9 71.6 23.8 26.5 31.9 5.5 8.3 6.2 299.9 324.7 0.00 0.0000000 41.7
2021-01-22 04:35:00 30.3 74.1 23.0 26.5 30.3 3.7 5.3 4.1 261.7 293.2 0.00 0.0000000 41.6
2021-01-22 04:40:00 29.2 77.9 23.2 25.5 29.2 3.5 4.2 3.2 299.2 278.1 0.00 0.0000000 41.6
2021-01-22 04:45:00 29.2 76.2 22.6 25.7 29.2 3.3 4.9 3.7 316.8 299.9 0.00 0.0000000 41.5
2021-01-22 04:50:00 28.6 78.0 22.6 28.6 28.6 2.6 5.3 3.1 294.2 305.7 0.00 0.0000000 41.5
2021-01-22 04:55:00 27.5 79.9 22.1 27.5 27.5 1.7 3.7 2.8 245.9 267.3 0.00 0.0000000 41.4
2021-01-22 05:00:00 27.2 82.8 22.7 27.2 27.2 2.2 5.3 1.8 258.2 255.4 0.00 0.0000000 41.3
2021-01-22 05:05:00 27.6 82.9 23.1 24.1 27.6 3.1 3.1 2.0 266.2 268.2 0.00 0.0000000 41.2
2021-01-22 05:10:00 27.7 82.9 23.2 23.5 27.7 3.7 4.6 3.5 251.1 259.3 0.00 0.0000000 41.1
2021-01-22 05:15:00 27.7 82.5 23.1 27.7 27.7 2.8 4.0 3.2 262.5 255.3 0.00 0.0000000 41.1
2021-01-22 05:20:00 27.8 81.9 23.0 23.6 27.8 3.7 3.8 3.1 277.5 278.0 0.00 0.0000000 41.0
2021-01-22 05:25:00 27.5 82.0 22.8 27.5 27.5 2.6 3.7 2.9 268.8 272.7 0.00 0.0000000 40.9
2021-01-22 05:30:00 27.4 83.0 22.9 27.4 27.4 1.7 3.0 2.4 320.0 281.2 0.00 0.0000000 40.8
2021-01-22 05:35:00 27.9 83.2 23.5 27.9 27.9 2.2 2.8 2.3 326.9 324.8 0.00 0.0000000 40.8

Data is courtesy of the NM Climate Center. DO NOT USE IN LEGAL PROCEEDINGS.